createdAt,value
2022-10-26T00:01:21.783Z,7.03
2022-10-26T00:03:48.833Z,6.73
2022-10-26T00:06:18.314Z,6.80
2022-10-26T00:08:45.828Z,6.90
2022-10-26T00:11:13.462Z,6.87
2022-10-26T00:13:40.867Z,6.70
2022-10-26T00:16:09.892Z,6.43
2022-10-26T00:18:36.945Z,6.13
2022-10-26T00:21:05.096Z,6.53
2022-10-26T00:23:32.443Z,6.70
2022-10-26T00:25:59.596Z,6.90
2022-10-26T00:28:26.721Z,6.30
2022-10-26T00:30:53.719Z,6.57
2022-10-26T00:33:20.565Z,6.97
2022-10-26T00:35:49.262Z,6.60
2022-10-26T00:38:15.985Z,7.30
2022-10-26T00:40:44.337Z,7.00
2022-10-26T00:43:34.596Z,6.47
2022-10-26T00:46:03.090Z,7.10
2022-10-26T00:48:36.025Z,7.17
2022-10-26T00:51:09.000Z,7.00
2022-10-26T00:53:36.142Z,7.20
2022-10-26T00:56:03.592Z,7.63
2022-10-26T00:58:31.364Z,8.43
2022-10-26T01:00:58.163Z,7.87
2022-10-26T01:03:25.504Z,8.30
2022-10-26T01:05:56.737Z,9.00
2022-10-26T01:08:24.120Z,9.23
2022-10-26T01:10:51.673Z,8.57
2022-10-26T01:13:18.807Z,9.17
2022-10-26T01:16:07.687Z,8.90
2022-10-26T01:19:06.712Z,10.13
2022-10-26T01:21:42.506Z,10.67
2022-10-26T01:24:30.978Z,11.80
2022-10-26T01:27:02.400Z,11.73
2022-10-26T01:30:11.132Z,11.20
2022-10-26T01:33:00.231Z,11.60
2022-10-26T01:35:33.206Z,11.47
2022-10-26T01:38:05.585Z,10.37
2022-10-26T01:40:46.829Z,10.90
2022-10-26T01:43:15.525Z,9.93
2022-10-26T01:45:46.700Z,10.07
2022-10-26T01:48:17.749Z,10.90
2022-10-26T01:50:49.790Z,10.43
2022-10-26T01:53:17.142Z,10.50
2022-10-26T01:55:54.664Z,10.70
2022-10-26T01:58:42.093Z,12.23
2022-10-26T02:01:29.841Z,12.20
2022-10-26T02:04:20.856Z,12.40
2022-10-26T02:07:02.348Z,11.40
2022-10-26T02:09:43.199Z,12.17
2022-10-26T02:12:21.335Z,11.57
2022-10-26T02:14:51.011Z,11.87
2022-10-26T02:17:29.065Z,10.80
2022-10-26T02:20:05.876Z,10.60
2022-10-26T02:22:38.003Z,11.17
2022-10-26T02:25:09.881Z,10.43
2022-10-26T02:27:42.545Z,10.10
2022-10-26T02:30:11.164Z,10.43
2022-10-26T02:32:42.568Z,10.43
2022-10-26T02:35:09.961Z,10.90
2022-10-26T02:37:38.589Z,10.73
2022-10-26T02:40:11.438Z,11.27
2022-10-26T02:42:42.325Z,10.33
2022-10-26T02:45:12.810Z,10.70
2022-10-26T02:47:39.581Z,11.33
2022-10-26T02:50:06.903Z,11.27
2022-10-26T02:52:50.570Z,10.90
2022-10-26T02:55:27.837Z,11.10
2022-10-26T02:58:00.330Z,10.93
2022-10-26T03:00:27.240Z,10.17
2022-10-26T03:02:57.481Z,11.27
2022-10-26T03:05:32.692Z,10.67
2022-10-26T03:08:00.688Z,10.83
2022-10-26T03:10:27.638Z,10.90
2022-10-26T03:12:54.723Z,10.97
2022-10-26T03:15:21.789Z,12.13
2022-10-26T03:17:48.759Z,10.03
2022-10-26T03:20:15.767Z,11.20
2022-10-26T03:22:42.546Z,10.60
2022-10-26T03:27:41.886Z,10.50
2022-10-26T03:30:09.059Z,11.17
2022-10-26T03:32:35.868Z,10.03
2022-10-26T03:35:02.620Z,10.40
2022-10-26T03:37:29.344Z,11.30
2022-10-26T03:39:56.067Z,11.57
2022-10-26T03:42:22.792Z,11.17
2022-10-26T03:44:49.548Z,10.30
2022-10-26T03:47:16.293Z,11.00
2022-10-26T03:49:43.064Z,11.03
2022-10-26T03:52:09.888Z,11.83
2022-10-26T03:54:36.682Z,12.50
2022-10-26T03:57:03.470Z,11.83
2022-10-26T03:59:30.245Z,11.03
2022-10-26T04:01:58.012Z,11.03
2022-10-26T04:04:26.202Z,12.53
2022-10-26T04:06:53.076Z,11.57
2022-10-26T04:09:19.819Z,11.70
2022-10-26T04:11:46.540Z,11.17
2022-10-26T04:14:13.322Z,11.33
2022-10-26T04:16:40.128Z,12.03
2022-10-26T04:19:06.907Z,12.07
2022-10-26T04:21:35.429Z,11.13
2022-10-26T04:24:02.551Z,11.60
2022-10-26T04:26:29.342Z,11.53
2022-10-26T04:28:56.132Z,10.90
2022-10-26T04:31:22.944Z,11.40
2022-10-26T04:33:49.841Z,10.20
2022-10-26T04:36:16.587Z,10.73
2022-10-26T04:38:43.319Z,11.83
2022-10-26T04:41:10.275Z,11.70
2022-10-26T04:43:36.999Z,11.50
2022-10-26T04:46:03.713Z,11.37
2022-10-26T04:48:30.427Z,11.93
2022-10-26T04:51:01.077Z,11.87
2022-10-26T04:53:28.315Z,11.17
2022-10-26T04:55:59.314Z,12.07
2022-10-26T04:58:26.585Z,12.37
2022-10-26T05:00:53.672Z,12.97
2022-10-26T05:03:20.773Z,12.83
2022-10-26T05:05:50.671Z,12.57
2022-10-26T05:08:17.469Z,12.83
2022-10-26T05:10:49.038Z,11.73
2022-10-26T05:13:15.855Z,13.47
2022-10-26T05:15:42.646Z,12.47
2022-10-26T05:18:09.722Z,13.17
2022-10-26T05:20:37.422Z,13.53
2022-10-26T05:23:06.430Z,12.50
2022-10-26T05:25:36.622Z,12.40
2022-10-26T05:28:09.609Z,13.53
2022-10-26T05:30:36.548Z,13.00
2022-10-26T05:33:03.456Z,13.50
2022-10-26T05:35:30.940Z,13.83
2022-10-26T05:37:58.407Z,12.77
2022-10-26T05:40:25.679Z,13.20
2022-10-26T05:42:52.967Z,13.30
2022-10-26T05:45:20.193Z,13.10
2022-10-26T05:47:47.363Z,12.97
2022-10-26T05:50:14.466Z,12.83
2022-10-26T05:52:42.174Z,13.03
2022-10-26T05:55:10.263Z,14.53
2022-10-26T05:57:38.145Z,13.20
2022-10-26T06:00:15.068Z,13.10
2022-10-26T06:03:00.392Z,12.77
2022-10-26T06:05:31.074Z,12.67
2022-10-26T06:07:58.253Z,12.23
2022-10-26T06:10:25.451Z,13.07
2022-10-26T06:12:52.815Z,13.47
2022-10-26T06:15:21.740Z,13.17
2022-10-26T06:17:53.944Z,13.47
2022-10-26T06:20:54.171Z,14.80
2022-10-26T06:23:45.336Z,13.23
2022-10-26T06:26:18.318Z,12.93
2022-10-26T06:29:01.489Z,12.83
2022-10-26T06:31:28.345Z,13.03
2022-10-26T06:33:59.856Z,13.30
2022-10-26T06:36:29.117Z,13.00
2022-10-26T06:39:01.522Z,12.07
2022-10-26T06:41:30.878Z,11.80
2022-10-26T06:43:57.872Z,11.67
2022-10-26T06:46:40.866Z,11.13
2022-10-26T06:49:24.308Z,11.33
2022-10-26T06:52:17.496Z,11.00
2022-10-26T06:54:52.911Z,11.50
2022-10-26T06:57:21.823Z,10.33
2022-10-26T06:59:58.636Z,10.90
2022-10-26T07:02:25.566Z,11.17
2022-10-26T07:04:52.498Z,10.93
2022-10-26T07:07:21.924Z,10.13
2022-10-26T07:09:49.387Z,10.33
2022-10-26T07:12:16.332Z,8.40
2022-10-26T07:14:43.147Z,9.20
2022-10-26T07:17:10.333Z,8.97
2022-10-26T07:19:37.067Z,8.67
2022-10-26T07:22:04.072Z,9.67
2022-10-26T07:24:31.268Z,8.87
2022-10-26T07:26:58.776Z,9.10
2022-10-26T07:29:27.004Z,8.20
2022-10-26T07:34:25.872Z,10.27
2022-10-26T07:36:52.765Z,9.37
2022-10-26T07:39:20.100Z,9.40
2022-10-26T07:41:47.262Z,9.37
2022-10-26T07:44:14.094Z,9.37
2022-10-26T07:46:41.164Z,9.17
2022-10-26T07:49:08.162Z,9.43
2022-10-26T07:51:35.001Z,9.13
2022-10-26T07:54:01.747Z,9.07
2022-10-26T07:56:29.011Z,9.37
2022-10-26T07:58:56.200Z,9.73
2022-10-26T08:01:23.059Z,9.90
2022-10-26T08:03:54.192Z,8.77
2022-10-26T08:06:22.059Z,9.77
2022-10-26T08:08:49.165Z,8.57
2022-10-26T08:11:16.960Z,8.33
2022-10-26T08:13:43.833Z,9.17
2022-10-26T08:16:10.793Z,7.17
2022-10-26T08:18:37.998Z,7.97
2022-10-26T08:21:11.297Z,7.90
2022-10-26T08:23:39.581Z,7.93
2022-10-26T08:26:06.913Z,7.77
2022-10-26T08:28:33.848Z,6.77
2022-10-26T08:31:00.616Z,7.63
2022-10-26T08:33:27.361Z,7.07
2022-10-26T08:35:59.269Z,6.83
2022-10-26T08:38:26.447Z,6.13
2022-10-26T08:40:54.068Z,6.60
2022-10-26T08:43:35.133Z,6.80
2022-10-26T08:46:11.711Z,6.20
2022-10-26T08:49:02.763Z,6.17
2022-10-26T08:51:37.529Z,5.83
2022-10-26T08:54:21.575Z,6.30
2022-10-26T08:56:57.605Z,5.87
2022-10-26T08:59:26.695Z,5.87
2022-10-26T09:01:54.482Z,6.43
2022-10-26T09:04:28.114Z,5.73
2022-10-26T09:07:01.022Z,5.80
2022-10-26T09:09:57.297Z,5.37
2022-10-26T09:12:28.451Z,5.37
2022-10-26T09:15:13.455Z,4.77
2022-10-26T09:17:52.156Z,4.53
2022-10-26T09:20:40.695Z,4.40
2022-10-26T09:23:45.190Z,4.70
2022-10-26T09:26:24.055Z,3.72
2022-10-26T09:28:51.326Z,4.07
2022-10-26T09:31:18.324Z,3.95
2022-10-26T09:33:45.052Z,3.15
2022-10-26T09:36:20.821Z,3.63
2022-10-26T09:38:51.322Z,3.30
2022-10-26T09:41:27.061Z,4.05
2022-10-26T09:44:24.346Z,3.85
2022-10-26T09:47:23.082Z,3.50
2022-10-26T09:49:54.680Z,3.15
2022-10-26T09:52:21.594Z,3.80
2022-10-26T09:54:48.340Z,3.95
2022-10-26T09:57:18.657Z,3.70
2022-10-26T09:59:55.854Z,3.28
2022-10-26T10:02:47.237Z,3.40
2022-10-26T10:08:22.108Z,3.55
2022-10-26T10:10:59.585Z,3.30
2022-10-26T10:13:32.114Z,3.42
2022-10-26T10:16:05.203Z,2.45
2022-10-26T10:18:33.198Z,2.58
2022-10-26T10:21:00.693Z,2.20
2022-10-26T10:23:33.660Z,2.58
2022-10-26T10:26:12.546Z,2.15
2022-10-26T10:28:42.746Z,2.05
2022-10-26T10:31:27.834Z,2.38
2022-10-26T10:33:55.368Z,1.98
2022-10-26T10:36:25.468Z,1.95
2022-10-26T10:38:53.880Z,1.98
2022-10-26T10:41:32.712Z,2.00
2022-10-26T10:44:16.835Z,2.38
2022-10-26T10:46:43.721Z,2.88
2022-10-26T10:49:28.824Z,1.70
2022-10-26T10:51:56.411Z,1.88
2022-10-26T10:54:27.833Z,2.17
2022-10-26T10:57:17.259Z,1.50
2022-10-26T10:59:58.573Z,2.08
2022-10-26T11:02:49.463Z,2.03
2022-10-26T11:05:28.285Z,1.90
2022-10-26T11:08:28.150Z,2.38
2022-10-26T11:11:03.084Z,2.05
2022-10-26T11:13:38.252Z,2.17
2022-10-26T11:16:12.002Z,1.80
2022-10-26T11:18:46.742Z,2.08
2022-10-26T11:21:23.499Z,2.08
2022-10-26T11:24:16.585Z,2.40
2022-10-26T11:26:49.842Z,2.35
2022-10-26T11:29:23.782Z,2.50
2022-10-26T11:32:01.621Z,2.10
2022-10-26T11:34:38.925Z,1.90
2022-10-26T11:37:17.047Z,2.10
2022-10-26T11:40:02.145Z,2.05
2022-10-26T11:42:38.792Z,2.28
2022-10-26T11:45:25.806Z,2.15
2022-10-26T11:48:04.342Z,2.17
2022-10-26T11:50:36.363Z,1.70
2022-10-26T11:53:21.459Z,1.75
2022-10-26T11:55:53.028Z,1.77
2022-10-26T11:58:24.457Z,1.90
2022-10-26T12:01:00.466Z,2.00
2022-10-26T12:03:31.747Z,1.90
2022-10-26T12:05:58.489Z,2.00
2022-10-26T12:08:33.667Z,1.77
2022-10-26T12:11:12.526Z,2.38
2022-10-26T12:13:51.130Z,1.77
2022-10-26T12:16:40.609Z,1.90
2022-10-26T12:21:55.228Z,2.00
2022-10-26T12:24:27.921Z,1.90
2022-10-26T12:26:59.505Z,1.83
2022-10-26T12:29:38.660Z,1.77
2022-10-26T12:32:28.110Z,2.05
2022-10-26T12:34:55.007Z,1.88
2022-10-26T12:37:23.183Z,1.88
2022-10-26T12:39:50.013Z,1.80
2022-10-26T12:42:16.682Z,2.10
2022-10-26T12:44:45.520Z,1.80
2022-10-26T12:47:30.805Z,1.60
2022-10-26T12:50:06.531Z,1.60
2022-10-26T12:52:41.167Z,2.55
2022-10-26T12:55:29.278Z,2.60
2022-10-26T12:57:59.145Z,2.17
2022-10-26T13:00:27.985Z,2.20
2022-10-26T13:03:07.106Z,2.58
2022-10-26T13:05:39.705Z,2.20
2022-10-26T13:08:09.422Z,1.98
2022-10-26T13:10:38.414Z,2.00
2022-10-26T13:13:07.812Z,2.13
2022-10-26T13:15:40.879Z,2.00
2022-10-26T13:18:07.614Z,2.00
2022-10-26T13:20:37.795Z,2.10
2022-10-26T13:23:16.922Z,2.15
2022-10-26T13:26:12.896Z,1.80
2022-10-26T13:28:39.860Z,2.28
2022-10-26T13:31:31.626Z,2.30
2022-10-26T13:34:03.501Z,2.13
2022-10-26T13:37:04.536Z,2.70
2022-10-26T13:39:46.463Z,2.38
2022-10-26T13:42:20.168Z,2.42
2022-10-26T13:45:03.051Z,2.20
2022-10-26T13:47:48.755Z,2.17
2022-10-26T13:53:54.785Z,2.78
2022-10-26T13:56:21.583Z,2.92
2022-10-26T13:59:03.507Z,3.00
2022-10-26T14:01:30.996Z,2.70
2022-10-26T14:03:57.919Z,2.53
2022-10-26T14:06:49.889Z,2.72
2022-10-26T14:09:18.989Z,2.72
2022-10-26T14:12:00.731Z,2.40
2022-10-26T14:14:34.288Z,2.80
2022-10-26T14:17:02.619Z,2.58
2022-10-26T14:19:35.540Z,3.28
2022-10-26T14:22:03.034Z,3.17
2022-10-26T14:24:46.246Z,3.10
2022-10-26T14:27:19.323Z,3.40
2022-10-26T14:29:58.364Z,3.33
2022-10-26T14:32:33.910Z,3.45
2022-10-26T14:35:00.785Z,3.63
2022-10-26T14:37:56.684Z,3.60
2022-10-26T14:40:27.643Z,3.75
2022-10-26T14:43:02.662Z,3.80
2022-10-26T14:45:48.655Z,3.70
2022-10-26T14:48:23.582Z,3.63
2022-10-26T14:51:05.879Z,4.25
2022-10-26T14:53:40.828Z,3.55
2022-10-26T14:56:38.998Z,3.30
2022-10-26T14:59:22.067Z,3.20
2022-10-26T15:02:10.941Z,3.17
2022-10-26T15:04:40.624Z,3.22
2022-10-26T15:07:11.622Z,3.58
2022-10-26T15:09:53.640Z,2.95
2022-10-26T15:12:31.645Z,3.60
2022-10-26T15:15:19.547Z,3.15
2022-10-26T15:17:55.828Z,3.28
2022-10-26T15:20:25.107Z,3.25
2022-10-26T15:22:54.575Z,3.65
2022-10-26T15:25:25.712Z,3.78
2022-10-26T15:27:53.045Z,4.03
2022-10-26T15:30:25.923Z,3.20
2022-10-26T15:32:54.529Z,4.05
2022-10-26T15:35:26.322Z,4.00
2022-10-26T15:37:55.371Z,3.97
2022-10-26T15:42:59.326Z,4.03
2022-10-26T15:45:47.977Z,4.68
2022-10-26T15:48:34.328Z,4.75
2022-10-26T15:51:01.137Z,5.00
2022-10-26T15:53:28.222Z,5.97
2022-10-26T15:55:58.013Z,6.20
2022-10-26T15:58:25.408Z,6.22
2022-10-26T16:00:52.269Z,5.97
2022-10-26T16:03:22.578Z,6.40
2022-10-26T16:05:55.652Z,6.93
2022-10-26T16:08:22.468Z,5.47
2022-10-26T16:10:51.089Z,6.00
2022-10-26T16:13:17.985Z,6.65
2022-10-26T16:15:45.285Z,6.00
2022-10-26T16:18:12.187Z,7.07
2022-10-26T16:20:39.033Z,6.22
2022-10-26T16:23:08.630Z,6.63
2022-10-26T16:25:41.584Z,6.57
2022-10-26T16:28:15.489Z,6.03
2022-10-26T16:30:42.787Z,6.55
2022-10-26T16:33:09.587Z,6.05
2022-10-26T16:35:36.332Z,6.57
2022-10-26T16:38:03.142Z,6.00
2022-10-26T16:40:29.903Z,6.70
2022-10-26T16:42:56.733Z,6.10
2022-10-26T16:45:23.545Z,6.72
2022-10-26T16:47:50.593Z,6.30
2022-10-26T16:50:20.518Z,5.70
2022-10-26T16:52:47.243Z,5.82
2022-10-26T16:55:14.279Z,5.95
2022-10-26T16:57:41.211Z,5.45
2022-10-26T17:00:08.427Z,5.90
2022-10-26T17:02:35.365Z,5.63
2022-10-26T17:05:05.914Z,6.70
2022-10-26T17:07:34.814Z,7.20
2022-10-26T17:10:01.717Z,6.25
2022-10-26T17:12:29.459Z,5.93
2022-10-26T17:14:58.598Z,5.93
2022-10-26T17:17:25.430Z,5.60
2022-10-26T17:19:52.211Z,5.35
2022-10-26T17:22:18.990Z,4.95
2022-10-26T17:24:45.784Z,4.95
2022-10-26T17:27:12.565Z,5.05
2022-10-26T17:29:39.349Z,5.18
2022-10-26T17:32:06.137Z,6.20
2022-10-26T17:34:32.968Z,5.90
2022-10-26T17:36:59.740Z,5.55
2022-10-26T17:39:26.666Z,5.97
2022-10-26T17:41:53.386Z,6.82
2022-10-26T17:44:20.264Z,5.65
2022-10-26T17:46:47.019Z,5.70
2022-10-26T17:49:13.790Z,5.90
2022-10-26T17:51:40.563Z,5.55
2022-10-26T17:54:07.639Z,5.75
2022-10-26T17:56:34.623Z,6.00
2022-10-26T17:59:08.986Z,5.27
2022-10-26T18:01:35.927Z,5.32
2022-10-26T18:04:02.815Z,5.32
2022-10-26T18:06:29.635Z,6.00
2022-10-26T18:08:57.732Z,9.85
2022-10-26T18:11:27.287Z,5.40
2022-10-26T18:13:55.834Z,5.80
2022-10-26T18:16:24.473Z,5.40
2022-10-26T18:19:04.415Z,5.20
2022-10-26T18:21:38.733Z,5.68
2022-10-26T18:24:09.225Z,5.78
2022-10-26T18:26:36.198Z,6.17
2022-10-26T18:29:04.551Z,5.95
2022-10-26T18:31:32.725Z,5.50
2022-10-26T18:34:02.163Z,5.13
2022-10-26T18:36:29.786Z,5.70
2022-10-26T18:38:56.629Z,5.57
2022-10-26T18:41:24.426Z,5.20
2022-10-26T18:43:54.113Z,5.40
2022-10-26T18:46:27.691Z,5.57
2022-10-26T18:48:55.660Z,5.50
2022-10-26T18:51:29.034Z,5.50
2022-10-26T18:53:56.492Z,5.10
2022-10-26T18:56:24.966Z,5.37
2022-10-26T18:58:55.752Z,5.77
2022-10-26T19:01:30.349Z,6.07
2022-10-26T19:04:05.753Z,6.27
2022-10-26T19:06:38.298Z,7.93
2022-10-26T19:09:06.758Z,5.88
2022-10-26T19:11:34.126Z,8.13
2022-10-26T19:14:00.912Z,6.57
2022-10-26T19:16:45.067Z,6.78
2022-10-26T19:19:14.191Z,12.83
2022-10-26T19:21:41.064Z,9.60
2022-10-26T19:24:12.973Z,8.13
2022-10-26T19:26:43.545Z,7.20
2022-10-26T19:29:16.097Z,6.07
2022-10-26T19:31:45.824Z,6.60
2022-10-26T19:34:14.627Z,6.70
2022-10-26T19:36:44.944Z,6.33
2022-10-26T19:39:13.663Z,7.33
2022-10-26T19:41:40.855Z,6.80
2022-10-26T19:44:07.962Z,6.70
2022-10-26T19:46:34.900Z,6.20
2022-10-26T19:49:02.458Z,6.57
2022-10-26T19:51:31.255Z,6.70
2022-10-26T19:54:03.175Z,6.10
2022-10-26T19:56:31.313Z,5.63
2022-10-26T19:58:58.275Z,11.38
2022-10-26T20:01:25.255Z,8.73
2022-10-26T20:03:52.470Z,12.00
2022-10-26T20:06:19.726Z,6.75
2022-10-26T20:08:48.410Z,6.35
2022-10-26T20:11:17.109Z,6.93
2022-10-26T20:13:45.874Z,6.10
2022-10-26T20:16:13.599Z,5.00
2022-10-26T20:18:44.089Z,6.28
2022-10-26T20:21:14.910Z,5.80
2022-10-26T20:23:42.744Z,5.38
2022-10-26T20:26:11.904Z,5.20
2022-10-26T20:28:48.073Z,5.25
2022-10-26T20:31:15.067Z,6.03
2022-10-26T20:33:42.080Z,6.53
2022-10-26T20:36:09.018Z,5.85
2022-10-26T20:38:36.070Z,5.28
2022-10-26T20:41:06.289Z,6.10
2022-10-26T20:43:38.982Z,6.38
2022-10-26T20:46:32.399Z,6.10
2022-10-26T20:48:59.441Z,5.05
2022-10-26T20:51:47.611Z,5.28
2022-10-26T20:54:30.165Z,5.88
2022-10-26T20:57:00.600Z,5.78
2022-10-26T20:59:39.746Z,5.60
2022-10-26T21:02:09.699Z,5.38
2022-10-26T21:04:36.552Z,5.38
2022-10-26T21:07:03.323Z,6.20
2022-10-26T21:09:31.773Z,5.88
2022-10-26T21:12:02.256Z,5.97
2022-10-26T21:14:29.058Z,7.00
2022-10-26T21:16:56.024Z,7.70
2022-10-26T21:19:22.838Z,6.57
2022-10-26T21:21:49.574Z,6.07
2022-10-26T21:24:16.350Z,6.47
2022-10-26T21:26:43.075Z,6.38
2022-10-26T21:29:10.982Z,6.93
2022-10-26T21:31:37.966Z,7.45
2022-10-26T21:34:04.789Z,6.15
2022-10-26T21:36:31.507Z,6.73
2022-10-26T21:38:58.365Z,7.22
2022-10-26T21:44:03.728Z,7.47
2022-10-26T21:46:38.302Z,7.05
2022-10-26T21:49:05.855Z,6.67
2022-10-26T21:51:32.978Z,7.20
2022-10-26T21:53:59.789Z,6.87
2022-10-26T21:56:26.587Z,7.57
2022-10-26T21:58:53.316Z,7.77
2022-10-26T22:01:22.243Z,6.85
2022-10-26T22:03:49.739Z,7.80
2022-10-26T22:06:21.183Z,7.38
2022-10-26T22:08:48.243Z,7.40
2022-10-26T22:11:18.815Z,7.13
2022-10-26T22:13:47.364Z,8.00
2022-10-26T22:16:22.918Z,7.60
2022-10-26T22:18:51.209Z,7.07
2022-10-26T22:21:19.695Z,6.15
2022-10-26T22:23:46.909Z,7.47
2022-10-26T22:26:20.126Z,7.07
2022-10-26T22:28:48.642Z,6.63
2022-10-26T22:34:07.406Z,6.77
2022-10-26T22:36:35.405Z,6.87
2022-10-26T22:39:02.377Z,6.60
2022-10-26T22:41:29.211Z,5.93
2022-10-26T22:43:55.943Z,5.70
2022-10-26T22:46:25.085Z,6.30
2022-10-26T22:48:57.005Z,5.53
2022-10-26T22:51:25.207Z,5.77
2022-10-26T22:53:53.895Z,5.90
2022-10-26T22:56:21.624Z,5.63
2022-10-26T22:58:48.525Z,5.60
2022-10-26T23:01:17.968Z,5.50
2022-10-26T23:03:44.997Z,5.63
2022-10-26T23:06:15.027Z,5.43
2022-10-26T23:08:42.399Z,5.10
2022-10-26T23:11:12.315Z,5.03
2022-10-26T23:13:39.220Z,4.90
2022-10-26T23:16:07.830Z,4.73
2022-10-26T23:18:34.853Z,4.60
2022-10-26T23:21:02.422Z,5.47
2022-10-26T23:23:29.332Z,4.57
2022-10-26T23:26:03.285Z,4.83
2022-10-26T23:28:30.738Z,4.70
2022-10-26T23:30:57.504Z,5.27
2022-10-26T23:33:24.306Z,4.83
2022-10-26T23:35:51.774Z,4.40
2022-10-26T23:38:18.827Z,5.37
2022-10-26T23:40:52.453Z,4.87
2022-10-26T23:43:19.778Z,5.27
2022-10-26T23:45:47.060Z,5.50
2022-10-26T23:48:14.489Z,4.93
2022-10-26T23:50:43.340Z,4.83
2022-10-26T23:53:11.581Z,5.13
2022-10-26T23:55:38.385Z,5.13
2022-10-26T23:58:05.812Z,5.10
